sensor_id;sensor_type;location;lat;lon;timestamp;pressure;altitude;pressure_sealevel;temperature;humidity
47742;BME280;33504;52.066;6.096;2023-05-11T00:01:13;101347.35;;;16.88;49.27
47742;BME280;33504;52.066;6.096;2023-05-11T00:03:40;101344.87;;;16.89;49.34
47742;BME280;33504;52.066;6.096;2023-05-11T00:06:07;101345.65;;;16.90;49.36
47742;BME280;33504;52.066;6.096;2023-05-11T00:08:34;101342.65;;;16.87;49.42
47742;BME280;33504;52.066;6.096;2023-05-11T00:11:01;101343.73;;;17.09;49.46
47742;BME280;33504;52.066;6.096;2023-05-11T00:13:28;101338.88;;;16.85;49.53
47742;BME280;33504;52.066;6.096;2023-05-11T00:15:55;101336.61;;;16.57;49.72
47742;BME280;33504;52.066;6.096;2023-05-11T00:18:22;101334.10;;;16.81;49.72
47742;BME280;33504;52.066;6.096;2023-05-11T00:20:48;101332.02;;;16.81;49.84
47742;BME280;33504;52.066;6.096;2023-05-11T00:23:16;101331.84;;;16.54;49.90
47742;BME280;33504;52.066;6.096;2023-05-11T00:25:43;101329.95;;;16.79;49.85
47742;BME280;33504;52.066;6.096;2023-05-11T00:28:09;101329.51;;;16.79;49.84
47742;BME280;33504;52.066;6.096;2023-05-11T00:30:38;101328.84;;;16.79;49.95
47742;BME280;33504;52.066;6.096;2023-05-11T00:33:06;101327.05;;;16.80;49.99
47742;BME280;33504;52.066;6.096;2023-05-11T00:35:33;101327.95;;;17.04;49.84
47742;BME280;33504;52.066;6.096;2023-05-11T00:37:59;101331.91;;;16.53;49.81
47742;BME280;33504;52.066;6.096;2023-05-11T00:40:27;101333.02;;;16.97;49.86
47742;BME280;33504;52.066;6.096;2023-05-11T00:42:54;101332.24;;;16.75;49.88
47742;BME280;33504;52.066;6.096;2023-05-11T00:45:21;101329.09;;;16.74;49.92
47742;BME280;33504;52.066;6.096;2023-05-11T00:47:48;101328.41;;;16.46;49.87
47742;BME280;33504;52.066;6.096;2023-05-11T00:50:16;101326.82;;;16.93;49.95
47742;BME280;33504;52.066;6.096;2023-05-11T00:52:44;101328.34;;;16.67;50.02
47742;BME280;33504;52.066;6.096;2023-05-11T00:55:13;101329.99;;;16.89;49.99
47742;BME280;33504;52.066;6.096;2023-05-11T00:57:40;101330.63;;;16.65;50.02
47742;BME280;33504;52.066;6.096;2023-05-11T01:00:08;101329.44;;;16.63;50.07
47742;BME280;33504;52.066;6.096;2023-05-11T01:02:35;101328.73;;;16.62;50.10
47742;BME280;33504;52.066;6.096;2023-05-11T01:05:03;101334.10;;;16.82;50.16
47742;BME280;33504;52.066;6.096;2023-05-11T01:07:36;101332.96;;;16.60;50.12
47742;BME280;33504;52.066;6.096;2023-05-11T01:10:11;101326.90;;;16.78;50.21
47742;BME280;33504;52.066;6.096;2023-05-11T01:12:52;101324.30;;;16.73;50.27
47742;BME280;33504;52.066;6.096;2023-05-11T01:15:26;101323.10;;;16.70;50.28
47742;BME280;33504;52.066;6.096;2023-05-11T01:17:58;101324.47;;;16.43;50.34
47742;BME280;33504;52.066;6.096;2023-05-11T01:20:28;101326.11;;;16.42;50.31
47742;BME280;33504;52.066;6.096;2023-05-11T01:23:11;101330.02;;;16.41;50.28
47742;BME280;33504;52.066;6.096;2023-05-11T01:25:55;101330.34;;;16.61;50.34
47742;BME280;33504;52.066;6.096;2023-05-11T01:28:48;101327.88;;;16.35;50.41
47742;BME280;33504;52.066;6.096;2023-05-11T01:31:18;101329.67;;;16.31;50.36
47742;BME280;33504;52.066;6.096;2023-05-11T01:33:50;101330.30;;;16.54;50.41
47742;BME280;33504;52.066;6.096;2023-05-11T01:36:22;101332.55;;;16.52;50.40
47742;BME280;33504;52.066;6.096;2023-05-11T01:38:52;101335.74;;;16.53;50.35
47742;BME280;33504;52.066;6.096;2023-05-11T01:41:20;101336.82;;;16.57;50.33
47742;BME280;33504;52.066;6.096;2023-05-11T01:43:53;101340.12;;;16.59;50.32
47742;BME280;33504;52.066;6.096;2023-05-11T01:46:24;101342.68;;;16.60;50.25
47742;BME280;33504;52.066;6.096;2023-05-11T01:48:54;101339.61;;;16.09;50.31
47742;BME280;33504;52.066;6.096;2023-05-11T01:51:23;101342.79;;;16.57;50.32
47742;BME280;33504;52.066;6.096;2023-05-11T01:53:52;101342.51;;;16.55;50.34
47742;BME280;33504;52.066;6.096;2023-05-11T01:56:21;101343.78;;;16.32;50.32
47742;BME280;33504;52.066;6.096;2023-05-11T01:58:50;101349.20;;;16.58;50.41
47742;BME280;33504;52.066;6.096;2023-05-11T02:01:18;101350.76;;;16.59;50.44
47742;BME280;33504;52.066;6.096;2023-05-11T02:03:47;101352.60;;;16.42;50.52
47742;BME280;33504;52.066;6.096;2023-05-11T02:06:15;101352.09;;;16.62;50.36
47742;BME280;33504;52.066;6.096;2023-05-11T02:08:44;101352.61;;;16.42;50.44
47742;BME280;33504;52.066;6.096;2023-05-11T02:11:12;101354.09;;;16.64;50.50
47742;BME280;33504;52.066;6.096;2023-05-11T02:13:42;101357.82;;;16.65;50.51
47742;BME280;33504;52.066;6.096;2023-05-11T02:16:11;101356.21;;;16.45;50.50
47742;BME280;33504;52.066;6.096;2023-05-11T02:18:40;101357.96;;;16.45;50.40
47742;BME280;33504;52.066;6.096;2023-05-11T02:21:08;101361.68;;;16.68;50.40
47742;BME280;33504;52.066;6.096;2023-05-11T02:23:37;101364.27;;;16.66;50.51
47742;BME280;33504;52.066;6.096;2023-05-11T02:26:05;101367.94;;;16.66;50.60
47742;BME280;33504;52.066;6.096;2023-05-11T02:28:34;101368.67;;;16.41;50.56
47742;BME280;33504;52.066;6.096;2023-05-11T02:31:06;101365.43;;;16.42;50.59
47742;BME280;33504;52.066;6.096;2023-05-11T02:33:40;101356.84;;;16.61;50.57
47742;BME280;33504;52.066;6.096;2023-05-11T02:36:14;101354.32;;;16.55;50.57
47742;BME280;33504;52.066;6.096;2023-05-11T02:38:45;101353.19;;;16.51;50.67
47742;BME280;33504;52.066;6.096;2023-05-11T02:41:16;101349.00;;;16.46;50.78
47742;BME280;33504;52.066;6.096;2023-05-11T02:43:47;101345.23;;;16.42;50.78
47742;BME280;33504;52.066;6.096;2023-05-11T02:46:19;101344.39;;;16.35;50.83
47742;BME280;33504;52.066;6.096;2023-05-11T02:48:55;101346.67;;;16.29;50.89
47742;BME280;33504;52.066;6.096;2023-05-11T02:51:28;101350.48;;;16.26;51.04
47742;BME280;33504;52.066;6.096;2023-05-11T02:53:58;101354.28;;;16.27;51.08
47742;BME280;33504;52.066;6.096;2023-05-11T02:56:27;101353.10;;;16.20;51.01
47742;BME280;33504;52.066;6.096;2023-05-11T02:58:55;101351.35;;;16.22;51.07
47742;BME280;33504;52.066;6.096;2023-05-11T03:01:23;101348.03;;;16.21;50.95
47742;BME280;33504;52.066;6.096;2023-05-11T03:03:52;101349.55;;;16.20;50.97
47742;BME280;33504;52.066;6.096;2023-05-11T03:06:19;101349.54;;;16.15;50.98
47742;BME280;33504;52.066;6.096;2023-05-11T03:08:47;101348.53;;;16.13;51.05
47742;BME280;33504;52.066;6.096;2023-05-11T03:11:15;101350.05;;;16.12;51.11
47742;BME280;33504;52.066;6.096;2023-05-11T03:13:43;101352.84;;;16.11;51.03
47742;BME280;33504;52.066;6.096;2023-05-11T03:16:11;101353.52;;;16.08;50.92
47742;BME280;33504;52.066;6.096;2023-05-11T03:18:40;101355.30;;;16.07;50.89
47742;BME280;33504;52.066;6.096;2023-05-11T03:21:07;101357.01;;;16.05;50.90
47742;BME280;33504;52.066;6.096;2023-05-11T03:23:35;101360.14;;;16.04;50.85
47742;BME280;33504;52.066;6.096;2023-05-11T03:26:05;101361.99;;;16.01;50.88
47742;BME280;33504;52.066;6.096;2023-05-11T03:28:34;101360.00;;;16.00;50.96
47742;BME280;33504;52.066;6.096;2023-05-11T03:31:02;101360.34;;;15.79;50.99
47742;BME280;33504;52.066;6.096;2023-05-11T03:33:29;101357.28;;;16.02;51.02
47742;BME280;33504;52.066;6.096;2023-05-11T03:35:57;101352.73;;;16.31;51.04
47742;BME280;33504;52.066;6.096;2023-05-11T03:38:27;101351.47;;;16.04;50.98
47742;BME280;33504;52.066;6.096;2023-05-11T03:40:55;101351.78;;;16.01;50.98
47742;BME280;33504;52.066;6.096;2023-05-11T03:43:26;101352.52;;;16.00;50.96
47742;BME280;33504;52.066;6.096;2023-05-11T03:45:56;101356.35;;;16.00;51.03
47742;BME280;33504;52.066;6.096;2023-05-11T03:48:23;101354.81;;;16.29;50.99
47742;BME280;33504;52.066;6.096;2023-05-11T03:50:51;101355.43;;;16.02;50.97
47742;BME280;33504;52.066;6.096;2023-05-11T03:53:18;101358.20;;;16.02;51.01
47742;BME280;33504;52.066;6.096;2023-05-11T03:55:45;101357.97;;;16.04;50.99
47742;BME280;33504;52.066;6.096;2023-05-11T03:58:12;101358.59;;;16.06;51.00
47742;BME280;33504;52.066;6.096;2023-05-11T04:00:40;101355.96;;;16.06;50.94
47742;BME280;33504;52.066;6.096;2023-05-11T04:03:08;101357.04;;;15.86;50.85
47742;BME280;33504;52.066;6.096;2023-05-11T04:05:35;101356.44;;;16.09;50.82
47742;BME280;33504;52.066;6.096;2023-05-11T04:08:03;101357.98;;;16.34;50.83
47742;BME280;33504;52.066;6.096;2023-05-11T04:10:30;101359.30;;;16.06;50.82
47742;BME280;33504;52.066;6.096;2023-05-11T04:12:58;101362.21;;;16.06;50.74
47742;BME280;33504;52.066;6.096;2023-05-11T04:15:24;101359.30;;;16.03;50.88
47742;BME280;33504;52.066;6.096;2023-05-11T04:17:51;101358.87;;;16.01;50.82
47742;BME280;33504;52.066;6.096;2023-05-11T04:20:19;101359.25;;;16.02;50.76
47742;BME280;33504;52.066;6.096;2023-05-11T04:22:46;101361.59;;;16.01;50.76
47742;BME280;33504;52.066;6.096;2023-05-11T04:25:13;101363.17;;;15.97;50.67
47742;BME280;33504;52.066;6.096;2023-05-11T04:27:40;101365.58;;;15.96;50.56
47742;BME280;33504;52.066;6.096;2023-05-11T04:30:07;101366.51;;;15.89;50.48
47742;BME280;33504;52.066;6.096;2023-05-11T04:32:35;101371.07;;;15.86;50.50
47742;BME280;33504;52.066;6.096;2023-05-11T04:35:02;101373.15;;;15.80;50.42
47742;BME280;33504;52.066;6.096;2023-05-11T04:37:29;101373.16;;;15.76;50.47
47742;BME280;33504;52.066;6.096;2023-05-11T04:39:56;101374.24;;;15.98;50.62
47742;BME280;33504;52.066;6.096;2023-05-11T04:42:23;101374.52;;;15.73;50.59
47742;BME280;33504;52.066;6.096;2023-05-11T04:44:52;101373.62;;;15.72;50.61
47742;BME280;33504;52.066;6.096;2023-05-11T04:47:19;101372.80;;;15.68;50.64
47742;BME280;33504;52.066;6.096;2023-05-11T04:49:46;101373.88;;;15.97;50.45
47742;BME280;33504;52.066;6.096;2023-05-11T04:52:13;101372.86;;;15.93;50.36
47742;BME280;33504;52.066;6.096;2023-05-11T04:54:40;101378.75;;;15.64;50.45
47742;BME280;33504;52.066;6.096;2023-05-11T04:57:07;101381.42;;;15.63;50.46
47742;BME280;33504;52.066;6.096;2023-05-11T04:59:33;101380.87;;;15.69;50.48
47742;BME280;33504;52.066;6.096;2023-05-11T05:02:00;101382.19;;;15.70;50.47
47742;BME280;33504;52.066;6.096;2023-05-11T05:04:27;101384.34;;;15.68;50.50
47742;BME280;33504;52.066;6.096;2023-05-11T05:06:54;101387.15;;;15.64;50.45
47742;BME280;33504;52.066;6.096;2023-05-11T05:09:21;101387.40;;;15.66;50.42
47742;BME280;33504;52.066;6.096;2023-05-11T05:11:48;101384.81;;;15.90;50.29
47742;BME280;33504;52.066;6.096;2023-05-11T05:14:16;101386.32;;;15.65;50.39
47742;BME280;33504;52.066;6.096;2023-05-11T05:16:42;101383.12;;;15.95;50.38
47742;BME280;33504;52.066;6.096;2023-05-11T05:19:09;101385.54;;;15.68;50.33
47742;BME280;33504;52.066;6.096;2023-05-11T05:21:37;101383.32;;;15.65;50.29
47742;BME280;33504;52.066;6.096;2023-05-11T05:24:04;101386.02;;;15.64;50.27
47742;BME280;33504;52.066;6.096;2023-05-11T05:26:31;101389.88;;;15.66;50.35
47742;BME280;33504;52.066;6.096;2023-05-11T05:28:58;101394.51;;;15.66;50.39
47742;BME280;33504;52.066;6.096;2023-05-11T05:31:25;101398.97;;;15.69;50.50
47742;BME280;33504;52.066;6.096;2023-05-11T05:33:52;101402.92;;;15.71;50.60
47742;BME280;33504;52.066;6.096;2023-05-11T05:36:19;101407.45;;;16.04;50.92
47742;BME280;33504;52.066;6.096;2023-05-11T05:38:46;101411.86;;;15.91;50.71
47742;BME280;33504;52.066;6.096;2023-05-11T05:41:13;101414.00;;;16.03;50.73
47742;BME280;33504;52.066;6.096;2023-05-11T05:43:40;101419.13;;;16.09;50.77
47742;BME280;33504;52.066;6.096;2023-05-11T05:46:07;101421.17;;;16.17;50.63
47742;BME280;33504;52.066;6.096;2023-05-11T05:48:34;101424.98;;;16.17;50.52
47742;BME280;33504;52.066;6.096;2023-05-11T05:51:01;101427.78;;;16.45;50.36
47742;BME280;33504;52.066;6.096;2023-05-11T05:53:28;101425.24;;;16.45;50.35
47742;BME280;33504;52.066;6.096;2023-05-11T05:55:54;101428.84;;;16.27;50.34
47742;BME280;33504;52.066;6.096;2023-05-11T05:58:21;101429.50;;;16.36;50.41
47742;BME280;33504;52.066;6.096;2023-05-11T06:00:48;101431.66;;;16.45;50.29
47742;BME280;33504;52.066;6.096;2023-05-11T06:03:15;101429.74;;;16.50;50.36
47742;BME280;33504;52.066;6.096;2023-05-11T06:05:42;101431.56;;;16.59;50.02
47742;BME280;33504;52.066;6.096;2023-05-11T06:08:09;101428.56;;;16.68;49.94
47742;BME280;33504;52.066;6.096;2023-05-11T06:10:36;101428.36;;;16.69;49.81
47742;BME280;33504;52.066;6.096;2023-05-11T06:13:02;101425.29;;;16.66;49.99
47742;BME280;33504;52.066;6.096;2023-05-11T06:15:29;101428.14;;;16.17;50.28
47742;BME280;33504;52.066;6.096;2023-05-11T06:17:57;101428.03;;;16.75;50.30
47742;BME280;33504;52.066;6.096;2023-05-11T06:20:24;101430.55;;;16.82;50.29
47742;BME280;33504;52.066;6.096;2023-05-11T06:22:51;101429.78;;;16.65;50.29
47742;BME280;33504;52.066;6.096;2023-05-11T06:25:18;101428.64;;;16.72;50.18
47742;BME280;33504;52.066;6.096;2023-05-11T06:27:45;101432.54;;;16.98;50.26
47742;BME280;33504;52.066;6.096;2023-05-11T06:30:12;101435.94;;;17.06;50.33
47742;BME280;33504;52.066;6.096;2023-05-11T06:32:40;101438.07;;;17.10;50.13
47742;BME280;33504;52.066;6.096;2023-05-11T06:35:07;101440.13;;;16.88;49.36
47742;BME280;33504;52.066;6.096;2023-05-11T06:37:34;101439.95;;;17.10;49.09
47742;BME280;33504;52.066;6.096;2023-05-11T06:40:01;101439.42;;;16.81;49.13
47742;BME280;33504;52.066;6.096;2023-05-11T06:42:28;101438.45;;;17.08;49.19
47742;BME280;33504;52.066;6.096;2023-05-11T06:44:56;101438.55;;;16.91;49.48
47742;BME280;33504;52.066;6.096;2023-05-11T06:47:22;101436.42;;;16.72;49.33
47742;BME280;33504;52.066;6.096;2023-05-11T06:49:49;101435.63;;;17.28;49.47
47742;BME280;33504;52.066;6.096;2023-05-11T06:52:16;101434.05;;;16.89;49.63
47742;BME280;33504;52.066;6.096;2023-05-11T06:54:43;101435.23;;;17.20;49.60
47742;BME280;33504;52.066;6.096;2023-05-11T06:57:10;101435.37;;;17.49;49.51
47742;BME280;33504;52.066;6.096;2023-05-11T06:59:37;101434.22;;;17.34;49.68
47742;BME280;33504;52.066;6.096;2023-05-11T07:02:03;101432.87;;;17.43;49.51
47742;BME280;33504;52.066;6.096;2023-05-11T07:04:30;101430.69;;;17.25;49.37
47742;BME280;33504;52.066;6.096;2023-05-11T07:06:57;101432.03;;;17.35;49.01
47742;BME280;33504;52.066;6.096;2023-05-11T07:09:24;101429.32;;;17.18;48.80
47742;BME280;33504;52.066;6.096;2023-05-11T07:11:51;101430.03;;;17.23;48.52
47742;BME280;33504;52.066;6.096;2023-05-11T07:14:18;101435.63;;;17.30;48.52
47742;BME280;33504;52.066;6.096;2023-05-11T07:16:45;101435.17;;;17.54;48.51
47742;BME280;33504;52.066;6.096;2023-05-11T07:19:11;101438.59;;;17.56;48.13
47742;BME280;33504;52.066;6.096;2023-05-11T07:21:38;101441.61;;;17.60;47.69
47742;BME280;33504;52.066;6.096;2023-05-11T07:24:05;101444.47;;;17.62;47.40
47742;BME280;33504;52.066;6.096;2023-05-11T07:26:32;101446.45;;;17.61;47.59
47742;BME280;33504;52.066;6.096;2023-05-11T07:28:59;101447.92;;;17.64;47.14
47742;BME280;33504;52.066;6.096;2023-05-11T07:31:26;101450.77;;;17.60;46.34
47742;BME280;33504;52.066;6.096;2023-05-11T07:33:52;101456.19;;;17.38;46.59
47742;BME280;33504;52.066;6.096;2023-05-11T07:36:19;101459.51;;;17.45;46.90
47742;BME280;33504;52.066;6.096;2023-05-11T07:38:45;101461.57;;;17.44;47.46
47742;BME280;33504;52.066;6.096;2023-05-11T07:41:12;101460.99;;;17.51;47.00
47742;BME280;33504;52.066;6.096;2023-05-11T07:43:39;101461.04;;;17.58;46.84
47742;BME280;33504;52.066;6.096;2023-05-11T07:46:05;101458.52;;;17.46;47.37
47742;BME280;33504;52.066;6.096;2023-05-11T07:48:32;101458.62;;;17.77;47.57
47742;BME280;33504;52.066;6.096;2023-05-11T07:50:59;101459.94;;;17.63;47.12
47742;BME280;33504;52.066;6.096;2023-05-11T07:53:25;101458.73;;;17.69;47.09
47742;BME280;33504;52.066;6.096;2023-05-11T07:55:52;101461.42;;;17.94;47.71
47742;BME280;33504;52.066;6.096;2023-05-11T07:58:19;101457.98;;;17.91;47.97
47742;BME280;33504;52.066;6.096;2023-05-11T08:00:45;101458.82;;;17.92;46.93
47742;BME280;33504;52.066;6.096;2023-05-11T08:03:12;101457.82;;;18.21;47.06
47742;BME280;33504;52.066;6.096;2023-05-11T08:05:39;101458.26;;;18.20;47.89
47742;BME280;33504;52.066;6.096;2023-05-11T08:08:05;101459.89;;;18.61;47.77
47742;BME280;33504;52.066;6.096;2023-05-11T08:10:32;101462.45;;;18.55;47.70
47742;BME280;33504;52.066;6.096;2023-05-11T08:13:00;101463.57;;;18.81;46.44
47742;BME280;33504;52.066;6.096;2023-05-11T08:15:27;101466.38;;;18.78;45.99
47742;BME280;33504;52.066;6.096;2023-05-11T08:17:55;101465.42;;;18.88;45.61
47742;BME280;33504;52.066;6.096;2023-05-11T08:20:22;101461.62;;;18.73;45.65
47742;BME280;33504;52.066;6.096;2023-05-11T08:22:49;101463.40;;;18.80;45.19
47742;BME280;33504;52.066;6.096;2023-05-11T08:25:15;101466.78;;;18.82;45.51
47742;BME280;33504;52.066;6.096;2023-05-11T08:27:43;101466.09;;;19.41;44.53
47742;BME280;33504;52.066;6.096;2023-05-11T08:30:10;101466.40;;;19.59;44.58
47742;BME280;33504;52.066;6.096;2023-05-11T08:32:38;101468.12;;;19.62;44.24
47742;BME280;33504;52.066;6.096;2023-05-11T08:35:06;101464.79;;;19.80;44.08
47742;BME280;33504;52.066;6.096;2023-05-11T08:37:33;101464.38;;;19.79;44.52
47742;BME280;33504;52.066;6.096;2023-05-11T08:39:59;101463.41;;;20.21;43.40
47742;BME280;33504;52.066;6.096;2023-05-11T08:42:27;101463.76;;;20.44;44.21
47742;BME280;33504;52.066;6.096;2023-05-11T08:44:55;101464.18;;;20.51;44.31
47742;BME280;33504;52.066;6.096;2023-05-11T08:47:22;101462.83;;;20.29;42.90
47742;BME280;33504;52.066;6.096;2023-05-11T08:49:50;101463.79;;;20.58;43.14
47742;BME280;33504;52.066;6.096;2023-05-11T08:52:18;101461.42;;;20.37;42.84
47742;BME280;33504;52.066;6.096;2023-05-11T08:54:45;101462.08;;;20.24;43.17
47742;BME280;33504;52.066;6.096;2023-05-11T08:57:13;101463.98;;;20.51;42.69
47742;BME280;33504;52.066;6.096;2023-05-11T08:59:40;101462.39;;;20.05;42.31
47742;BME280;33504;52.066;6.096;2023-05-11T09:02:15;101462.07;;;19.96;42.49
47742;BME280;33504;52.066;6.096;2023-05-11T09:04:43;101463.41;;;19.95;42.71
47742;BME280;33504;52.066;6.096;2023-05-11T09:07:11;101463.23;;;20.31;42.67
47742;BME280;33504;52.066;6.096;2023-05-11T09:09:41;101462.56;;;20.37;43.14
47742;BME280;33504;52.066;6.096;2023-05-11T09:12:08;101463.49;;;20.41;42.30
47742;BME280;33504;52.066;6.096;2023-05-11T09:14:35;101460.98;;;20.36;41.89
47742;BME280;33504;52.066;6.096;2023-05-11T09:17:03;101462.03;;;20.13;42.67
47742;BME280;33504;52.066;6.096;2023-05-11T09:19:30;101458.04;;;20.69;41.48
47742;BME280;33504;52.066;6.096;2023-05-11T09:21:58;101458.35;;;20.77;41.37
47742;BME280;33504;52.066;6.096;2023-05-11T09:24:26;101458.96;;;20.95;41.11
47742;BME280;33504;52.066;6.096;2023-05-11T09:27:06;101459.90;;;21.34;40.54
47742;BME280;33504;52.066;6.096;2023-05-11T09:29:33;101460.08;;;21.44;39.76
47742;BME280;33504;52.066;6.096;2023-05-11T09:32:01;101458.24;;;21.73;39.58
47742;BME280;33504;52.066;6.096;2023-05-11T09:34:28;101456.48;;;21.91;38.71
47742;BME280;33504;52.066;6.096;2023-05-11T09:36:56;101454.08;;;22.48;37.73
47742;BME280;33504;52.066;6.096;2023-05-11T09:39:32;101448.47;;;22.53;37.24
47742;BME280;33504;52.066;6.096;2023-05-11T09:42:16;101451.94;;;22.72;36.65
47742;BME280;33504;52.066;6.096;2023-05-11T09:44:44;101454.11;;;22.66;34.78
47742;BME280;33504;52.066;6.096;2023-05-11T09:47:14;101455.67;;;22.53;36.25
47742;BME280;33504;52.066;6.096;2023-05-11T09:49:43;101456.88;;;22.85;36.16
47742;BME280;33504;52.066;6.096;2023-05-11T09:52:11;101456.61;;;23.26;35.07
47742;BME280;33504;52.066;6.096;2023-05-11T09:54:41;101456.07;;;23.18;37.25
47742;BME280;33504;52.066;6.096;2023-05-11T09:57:22;101455.76;;;23.23;34.61
47742;BME280;33504;52.066;6.096;2023-05-11T09:59:49;101453.28;;;23.23;33.99
47742;BME280;33504;52.066;6.096;2023-05-11T10:02:18;101450.98;;;23.45;33.57
47742;BME280;33504;52.066;6.096;2023-05-11T10:04:46;101449.65;;;23.44;33.21
47742;BME280;33504;52.066;6.096;2023-05-11T10:07:30;101450.74;;;23.86;33.68
47742;BME280;33504;52.066;6.096;2023-05-11T10:09:59;101451.99;;;23.94;32.73
47742;BME280;33504;52.066;6.096;2023-05-11T10:12:27;101454.10;;;23.87;34.04
47742;BME280;33504;52.066;6.096;2023-05-11T10:14:59;101455.65;;;23.92;33.64
47742;BME280;33504;52.066;6.096;2023-05-11T10:17:27;101454.51;;;23.97;33.92
47742;BME280;33504;52.066;6.096;2023-05-11T10:19:55;101450.17;;;24.07;33.49
47742;BME280;33504;52.066;6.096;2023-05-11T10:22:24;101450.17;;;23.45;34.18
47742;BME280;33504;52.066;6.096;2023-05-11T10:24:52;101443.89;;;23.29;34.55
47742;BME280;33504;52.066;6.096;2023-05-11T10:27:20;101445.45;;;23.17;34.77
47742;BME280;33504;52.066;6.096;2023-05-11T10:29:48;101449.98;;;23.25;34.97
47742;BME280;33504;52.066;6.096;2023-05-11T10:32:17;101449.29;;;23.07;35.09
47742;BME280;33504;52.066;6.096;2023-05-11T10:34:46;101449.44;;;22.96;35.58
47742;BME280;33504;52.066;6.096;2023-05-11T10:37:14;101451.54;;;22.83;35.91
47742;BME280;33504;52.066;6.096;2023-05-11T10:39:43;101454.54;;;22.37;34.92
47742;BME280;33504;52.066;6.096;2023-05-11T10:43:06;101457.86;;;23.36;37.74
47742;BME280;33504;52.066;6.096;2023-05-11T10:45:48;101460.87;;;21.83;38.61
47742;BME280;33504;52.066;6.096;2023-05-11T10:48:31;101459.14;;;21.54;39.00
47742;BME280;33504;52.066;6.096;2023-05-11T10:51:17;101460.14;;;21.38;40.03
47742;BME280;33504;52.066;6.096;2023-05-11T10:53:57;101461.86;;;21.23;39.81
47742;BME280;33504;52.066;6.096;2023-05-11T10:56:41;101463.66;;;20.89;40.24
47742;BME280;33504;52.066;6.096;2023-05-11T10:59:27;101463.08;;;20.98;40.39
47742;BME280;33504;52.066;6.096;2023-05-11T11:01:58;101468.63;;;20.91;41.23
47742;BME280;33504;52.066;6.096;2023-05-11T11:04:40;101464.77;;;20.83;41.12
47742;BME280;33504;52.066;6.096;2023-05-11T11:07:08;101464.87;;;20.65;41.68
47742;BME280;33504;52.066;6.096;2023-05-11T11:09:54;101457.21;;;20.71;40.89
47742;BME280;33504;52.066;6.096;2023-05-11T11:12:22;101463.30;;;20.71;40.86
47742;BME280;33504;52.066;6.096;2023-05-11T11:14:55;101464.24;;;20.60;40.69
47742;BME280;33504;52.066;6.096;2023-05-11T11:17:24;101466.51;;;20.68;40.60
47742;BME280;33504;52.066;6.096;2023-05-11T11:19:51;101463.88;;;20.95;40.31
47742;BME280;33504;52.066;6.096;2023-05-11T11:22:51;101463.36;;;21.60;40.64
47742;BME280;33504;52.066;6.096;2023-05-11T11:25:50;101461.52;;;21.02;40.31
47742;BME280;33504;52.066;6.096;2023-05-11T11:28:18;101461.18;;;20.97;39.75
47742;BME280;33504;52.066;6.096;2023-05-11T11:30:45;101461.08;;;20.84;39.26
47742;BME280;33504;52.066;6.096;2023-05-11T11:33:45;101459.83;;;21.79;39.73
47742;BME280;33504;52.066;6.096;2023-05-11T11:36:12;101460.88;;;21.09;40.14
47742;BME280;33504;52.066;6.096;2023-05-11T11:38:56;101458.66;;;21.13;39.70
47742;BME280;33504;52.066;6.096;2023-05-11T11:41:27;101454.70;;;20.87;40.12
47742;BME280;33504;52.066;6.096;2023-05-11T11:43:54;101453.70;;;21.29;40.43
47742;BME280;33504;52.066;6.096;2023-05-11T11:46:25;101452.41;;;20.85;40.48
47742;BME280;33504;52.066;6.096;2023-05-11T11:49:06;101454.98;;;21.26;40.18
47742;BME280;33504;52.066;6.096;2023-05-11T11:51:33;101454.40;;;21.13;39.63
47742;BME280;33504;52.066;6.096;2023-05-11T11:54:01;101451.52;;;21.32;39.78
47742;BME280;33504;52.066;6.096;2023-05-11T11:56:38;101448.27;;;21.34;40.07
47742;BME280;33504;52.066;6.096;2023-05-11T11:59:04;101447.68;;;21.39;40.05
47742;BME280;33504;52.066;6.096;2023-05-11T12:01:36;101446.63;;;21.43;39.61
47742;BME280;33504;52.066;6.096;2023-05-11T12:04:38;101449.38;;;22.08;39.70
47742;BME280;33504;52.066;6.096;2023-05-11T12:07:11;101449.71;;;21.54;38.24
47742;BME280;33504;52.066;6.096;2023-05-11T12:09:39;101454.78;;;21.63;38.85
47742;BME280;33504;52.066;6.096;2023-05-11T12:12:06;101454.45;;;21.53;37.22
47742;BME280;33504;52.066;6.096;2023-05-11T12:14:34;101453.72;;;21.85;37.65
47742;BME280;33504;52.066;6.096;2023-05-11T12:17:04;101450.34;;;21.87;37.72
47742;BME280;33504;52.066;6.096;2023-05-11T12:19:31;101449.90;;;21.96;37.49
47742;BME280;33504;52.066;6.096;2023-05-11T12:21:59;101446.17;;;22.27;38.37
47742;BME280;33504;52.066;6.096;2023-05-11T12:24:26;101442.16;;;22.09;37.66
47742;BME280;33504;52.066;6.096;2023-05-11T12:26:55;101443.21;;;22.20;38.12
47742;BME280;33504;52.066;6.096;2023-05-11T12:29:22;101440.67;;;21.96;37.48
47742;BME280;33504;52.066;6.096;2023-05-11T12:31:49;101438.76;;;22.00;36.93
47742;BME280;33504;52.066;6.096;2023-05-11T12:34:17;101434.64;;;21.96;36.53
47742;BME280;33504;52.066;6.096;2023-05-11T12:36:46;101435.85;;;21.71;37.24
47742;BME280;33504;52.066;6.096;2023-05-11T12:39:17;101432.48;;;21.74;38.37
47742;BME280;33504;52.066;6.096;2023-05-11T12:41:46;101429.20;;;21.54;38.22
47742;BME280;33504;52.066;6.096;2023-05-11T12:44:15;101426.56;;;21.79;37.88
47742;BME280;33504;52.066;6.096;2023-05-11T12:46:43;101425.36;;;21.88;38.55
47742;BME280;33504;52.066;6.096;2023-05-11T12:49:10;101423.68;;;21.70;37.89
47742;BME280;33504;52.066;6.096;2023-05-11T12:51:44;101422.62;;;21.51;37.46
47742;BME280;33504;52.066;6.096;2023-05-11T12:54:11;101419.02;;;21.70;37.49
47742;BME280;33504;52.066;6.096;2023-05-11T12:56:47;101418.06;;;21.61;38.16
47742;BME280;33504;52.066;6.096;2023-05-11T12:59:33;101416.58;;;21.61;38.24
47742;BME280;33504;52.066;6.096;2023-05-11T13:02:07;101419.61;;;21.52;38.02